Latest Weather Observations for Albury

IDV60801

Issued at 2:32 pm EDT Sunday 17 February 2019 (issued every 10 minutes, with the page automatically refreshed every 10 minutes)

About weather observations | Map of weather stations | Latest weather observations for VIC | Other Formats
Station Details ID: 072160 Name: ALBURY AIRPORT AWS Lat: -36.07 Lon: 146.95 Height: 163.5 m
Data from the previous 72 hours. | See also: Recent months at Albury
Date/Time
EDT
Temp
°C
App
Temp
°C
Dew
Point
°C
Rel
Hum
%
Delta-T
°C
Wind Press
QNH
hPa
Press
MSL
hPa
Rain since
9am
mm
Dir  Spd
km/h
Gust
km/h
Spd
kts
Gust
kts
17/02:30pm 35.0 29.6 4.5 15 16.3 W 22 39 12 21 1010.5 1009.7 0.0
17/02:00pm 33.3 27.2 5.0 17 15.1 WSW 26 39 14 21 1010.9 1010.1 0.0
17/01:30pm 34.3 28.2 4.9 16 15.8 W 26 37 14 20 1011.4 1010.6 0.0
17/01:00pm 33.0 28.2 5.5 18 14.8 SW 20 33 11 18 1011.5 1010.7 0.0
17/12:30pm 32.9 28.4 6.2 19 14.5 WSW 19 28 10 15 1012.0 1011.2 0.0
17/12:00pm 32.7 30.4 8.9 23 13.5 WSW 11 19 6 10 1012.4 1011.6 0.0
17/11:30am 31.2 29.5 8.2 24 12.8 WSW 7 15 4 8 1012.8 1012.0 0.0
17/11:00am 28.8 27.9 11.4 34 10.1 SSW 7 11 4 6 1013.2 1012.4 0.0
17/10:30am 26.8 25.9 12.5 41 8.4 S 9 15 5 8 1013.4 1012.6 0.0
17/10:00am 25.0 24.3 13.2 48 6.9 SE 9 13 5 7 1013.4 1012.6 0.0
17/09:30am 23.2 22.7 12.8 52 6.0 SE 7 9 4 5 1013.5 1012.7 0.0
17/09:00am 22.5 22.4 12.2 52 5.9 ESE 4 9 2 5 1013.7 1012.9 0.0
17/08:30am 20.6 20.6 11.2 55 5.2 NNW 2 6 1 3 1013.6 1012.8 0.0
17/08:00am 18.3 17.2 10.7 61 4.1 ESE 7 9 4 5 1013.5 1012.7 0.0
17/07:30am 17.7 17.6 10.8 64 3.7 E 2 9 1 5 1013.4 1012.6 0.0
17/07:00am 15.3 15.4 10.3 72 2.6 CALM 0 0 0 0 1013.2 1012.4 0.0
17/06:30am 16.1 16.4 10.8 71 2.8 CALM 0 0 0 0 1012.7 1011.9 0.0
17/06:00am 16.0 15.8 10.5 70 2.9 ENE 2 6 1 3 1012.5 1011.7 0.0
17/05:30am 16.0 15.7 10.1 68 3.1 E 2 6 1 3 1012.5 1011.7 0.0
17/05:00am 16.9 17.0 10.1 64 3.6 CALM 0 0 0 0 1012.5 1011.7 0.0
17/04:30am 16.6 16.6 9.8 64 3.6 CALM 0 0 0 0 1012.6 1011.8 0.0
17/04:00am 17.7 17.8 10.1 61 4.1 CALM 0 0 0 0 1012.6 1011.8 0.0
17/03:30am 17.9 17.8 9.5 58 4.4 CALM 0 0 0 0 1012.6 1011.8 0.0
17/03:00am 18.3 18.2 9.6 57 4.6 CALM 0 0 0 0 1012.6 1011.8 0.0
17/02:30am 18.4 18.5 10.3 59 4.4 CALM 0 0 0 0 1012.7 1011.9 0.0
17/02:00am 19.5 19.7 10.5 56 4.9 CALM 0 0 0 0 1013.0 1012.2 0.0
17/01:30am 20.1 20.1 9.7 51 5.6 CALM 0 0 0 0 1013.2 1012.4 0.0
17/01:00am 20.4 18.9 9.3 49 5.9 NNW 7 7 4 4 1013.5 1012.7 0.0
17/12:30am 20.6 20.7 10.1 51 5.7 CALM 0 2 0 1 1013.7 1012.9 0.0
17/12:00am 20.5 20.6 10.3 52 5.6 CALM 0 0 0 0 1013.7 1012.9 0.0
 
Date/Time
EDT
Temp
°C
App
Temp
°C
Dew
Point
°C
Rel
Hum
%
Delta-T
°C
Wind Press
QNH
hPa
Press
MSL
hPa
Rain since
9am
mm
Dir  Spd
km/h
Gust
km/h
Spd
kts
Gust
kts
16/11:30pm 20.7 19.8 10.8 53 5.5 ENE 6 7 3 4 1013.7 1012.9 0.0
16/11:00pm 21.8 22.3 11.5 52 5.8 CALM 0 0 0 0 1013.8 1013.1 0.0
16/10:30pm 22.6 22.6 9.7 44 7.0 CALM 0 0 0 0 1013.7 1012.9 0.0
16/10:00pm 23.7 23.8 10.0 42 7.6 CALM 0 0 0 0 1013.8 1013.1 0.0
16/09:30pm 24.5 24.3 8.9 37 8.5 CALM 0 0 0 0 1013.8 1013.1 0.0
16/09:00pm 26.9 26.4 7.9 30 10.3 CALM 0 2 0 1 1013.8 1013.1 0.0
16/08:30pm 26.8 25.2 7.8 30 10.3 E 6 9 3 5 1013.6 1012.8 0.0
16/08:00pm 28.9 27.0 6.9 25 11.8 WSW 6 7 3 4 1013.6 1012.8 0.0
16/07:30pm 30.7 28.2 6.6 22 13.0 W 9 15 5 8 1013.5 1012.7 0.0
16/07:00pm 32.0 29.4 6.2 20 13.9 WNW 9 13 5 7 1013.6 1012.8 0.0
16/06:30pm 32.3 30.2 6.5 20 14.0 W 7 13 4 7 1013.7 1012.9 0.0
16/06:00pm 32.3 28.6 6.5 20 14.0 NE 15 20 8 11 1013.8 1013.1 0.0
16/05:30pm 32.6 29.9 7.4 21 13.9 N 11 22 6 12 1014.0 1013.3 0.0
16/05:00pm 32.2 29.7 6.4 20 14.0 N 9 15 5 8 1014.3 1013.6 0.0
16/04:30pm 32.4 29.9 6.6 20 14.1 NNW 9 20 5 11 1014.5 1013.8 0.0
16/04:00pm 32.9 30.3 7.7 21 14.0 NNW 11 20 6 11 1014.9 1014.2 0.0
16/03:30pm 31.6 28.9 7.3 22 13.3 NNW 11 20 6 11 1015.4 1014.7 0.0
16/03:00pm 30.7 28.1 5.9 21 13.2 NW 9 20 5 11 1016.1 1015.3 0.0
16/02:30pm 30.8 27.8 6.0 21 13.3 NW 11 19 6 10 1016.7 1015.9 0.0
16/02:00pm 30.9 28.0 6.7 22 13.1 NNW 11 17 6 9 1017.1 1016.3 0.0
16/01:30pm 30.4 26.6 5.6 21 13.2 NNW 15 20 8 11 1017.5 1016.7 0.0
16/01:00pm 29.6 25.8 5.6 22 12.7 NNW 15 24 8 13 1017.8 1017.0 0.0
16/12:30pm 29.5 25.8 6.2 23 12.4 NNW 15 22 8 12 1018.3 1017.5 0.0
16/12:00pm 28.7 24.2 6.1 24 12.0 NE 19 26 10 14 1018.6 1017.8 0.0
16/11:30am 28.5 24.0 7.1 26 11.5 NE 20 28 11 15 1018.8 1018.0 0.0
16/11:00am 27.6 23.8 7.5 28 10.8 NNE 17 26 9 14 1019.0 1018.2 0.0
16/10:30am 26.9 24.2 10.2 35 9.4 NE 15 22 8 12 1019.1 1018.3 0.0
16/10:00am 24.8 22.8 11.4 43 7.6 E 13 22 7 12 1019.4 1018.7 0.0
16/09:30am 22.6 22.1 13.9 58 5.1 ESE 9 13 5 7 1019.5 1018.8 0.0
16/09:00am 20.5 20.0 12.7 61 4.4 SE 7 9 4 5 1019.7 1019.0 0.0
16/08:30am 20.0 19.4 12.3 61 4.3 ESE 7 9 4 5 1019.8 1019.1 0.0
16/08:00am 17.8 17.2 12.3 70 3.1 ESE 7 11 4 6 1019.6 1018.9 0.0
16/07:30am 16.6 16.9 12.2 75 2.4 S 2 7 1 4 1019.6 1018.9 0.0
16/07:00am 15.6 15.8 10.6 72 2.7 CALM 0 0 0 0 1019.2 1018.5 0.0
16/06:30am 16.2 16.4 10.7 70 2.9 CALM 0 0 0 0 1019.0 1018.2 0.0
16/06:00am 16.1 15.7 11.1 72 2.7 ESE 4 7 2 4 1018.8 1018.0 0.0
16/05:30am 16.6 17.0 11.1 70 3.0 CALM 0 0 0 0 1018.8 1018.0 0.0
16/05:00am 16.4 16.8 11.1 71 2.9 CALM 0 0 0 0 1018.6 1017.8 0.0
16/04:30am 16.6 16.9 10.9 69 3.1 CALM 0 0 0 0 1018.4 1017.6 0.0
16/04:00am 17.3 17.5 10.7 65 3.6 CALM 0 0 0 0 1018.5 1017.7 0.0
16/03:30am 17.3 17.6 10.9 66 3.5 CALM 0 0 0 0 1018.5 1017.7 0.0
16/03:00am 17.8 18.1 10.9 64 3.7 CALM 0 0 0 0 1018.4 1017.6 0.0
16/02:30am 17.1 16.5 10.5 65 3.5 SE 4 7 2 4 1018.5 1017.7 0.0
16/02:00am 18.3 18.2 9.6 57 4.6 CALM 0 0 0 0 1018.8 1018.0 0.0
16/01:30am 19.3 17.6 10.0 55 5.0 NE 9 24 5 13 1018.7 1017.9 0.0
16/01:00am 20.1 20.2 10.2 53 5.4 CALM 0 0 0 0 1018.6 1017.8 0.0
16/12:30am 21.5 21.6 10.0 48 6.3 CALM 0 0 0 0 1018.6 1017.8 0.0
16/12:00am 22.1 22.0 9.6 45 6.8 CALM 0 0 0 0 1018.6 1017.8 0.0
 
Date/Time
EDT
Temp
°C
App
Temp
°C
Dew
Point
°C
Rel
Hum
%
Delta-T
°C
Wind Press
QNH
hPa
Press
MSL
hPa
Rain since
9am
mm
Dir  Spd
km/h
Gust
km/h
Spd
kts
Gust
kts
15/11:30pm 21.8 20.9 10.6 49 6.2 E 6 9 3 5 1018.6 1017.8 0.0
15/11:00pm 20.8 20.2 10.3 51 5.7 E 4 9 2 5 1018.7 1017.9 0.0
15/10:30pm 22.6 23.2 12.0 51 6.0 CALM 0 0 0 0 1018.6 1017.8 0.0
15/10:00pm 24.7 24.6 9.4 38 8.4 CALM 0 0 0 0 1018.4 1017.6 0.0
15/09:30pm 25.1 25.2 10.2 39 8.3 CALM 0 0 0 0 1018.2 1017.4 0.0
15/09:00pm 26.4 25.5 9.3 34 9.4 WSW 4 9 2 5 1018.0 1017.2 0.0
15/08:30pm 27.8 27.4 8.1 29 10.7 CALM 0 0 0 0 1017.8 1017.0 0.0
15/08:00pm 29.4 27.9 8.5 27 11.6 S 6 7 3 4 1017.4 1016.6 0.0
15/07:30pm 30.6 28.4 7.7 24 12.6 SE 9 11 5 6 1017.3 1016.5 0.0
15/07:00pm 31.3 29.1 7.7 23 13.0 SE 9 13 5 7 1017.3 1016.5 0.0
15/06:30pm 31.9 29.6 7.5 22 13.5 SSE 9 13 5 7 1017.3 1016.5 0.0
15/06:00pm 31.4 29.4 7.1 22 13.3 ENE 7 11 4 6 1017.7 1016.9 0.0
15/05:30pm 32.3 30.8 8.5 23 13.4 NE 6 13 3 7 1018.0 1017.2 0.0
15/05:00pm 31.8 29.0 8.7 24 13.0 ESE 13 19 7 10 1018.2 1017.4 0.0
15/04:30pm 32.1 30.4 8.4 23 13.3 S 7 13 4 7 1018.6 1017.8 0.0
15/04:00pm 31.4 29.3 8.4 24 12.8 W 9 17 5 9 1018.8 1018.0 0.0
15/03:30pm 31.3 28.6 8.9 25 12.6 S 13 19 7 10 1019.2 1018.5 0.0
15/03:00pm 31.5 28.6 9.7 26 12.4 SE 15 22 8 12 1019.5 1018.8 0.0
15/02:30pm 30.4 27.8 9.3 27 11.9 ESE 13 24 7 13 1020.0 1019.3 0.0
15/02:00pm 29.9 27.2 8.9 27 11.7 ESE 13 24 7 13 1020.5 1019.8 0.0
15/01:30pm 29.9 26.9 9.4 28 11.5 ESE 15 24 8 13 1020.9 1020.2 0.0
15/01:00pm 28.9 27.4 9.1 29 11.0 S 7 13 4 7 1021.5 1020.8 0.0
15/12:30pm 28.7 26.8 8.9 29 11.0 N 9 17 5 9 1022.0 1021.3 0.0
15/12:00pm 27.8 26.3 9.1 31 10.3 SSW 7 13 4 7 1022.6 1021.8 0.0
15/11:30am 26.8 24.8 8.7 32 9.9 ENE 9 15 5 8 1023.1 1022.3 0.0
15/11:00am 25.7 24.1 8.7 34 9.2 ESE 7 13 4 7 1023.4 1022.6 0.0
15/10:30am 23.9 21.9 8.7 38 8.2 SE 9 13 5 7 1023.4 1022.6 0.0
15/10:00am 22.2 20.5 9.7 45 6.8 SSE 9 15 5 8 1023.3 1022.5 0.0
15/09:30am 21.0 19.4 10.2 50 5.9 ESE 9 13 5 7 1023.2 1022.4 0.0
15/09:00am 18.9 17.5 9.7 55 4.9 ESE 7 11 4 6 1023.1 1022.3 0.0
15/08:30am 17.8 16.0 9.4 58 4.4 SSE 9 11 5 6 1023.0 1022.2 0.0
15/08:00am 15.4 15.5 10.0 70 2.8 CALM 0 0 0 0 1022.5 1021.7 0.0
15/07:30am 14.7 14.5 8.9 68 3.0 CALM 0 0 0 0 1021.8 1021.1 0.0
15/07:00am 13.0 12.5 7.9 71 2.5 CALM 0 0 0 0 1021.6 1020.9 0.0
15/06:30am 12.6 12.0 7.3 70 2.6 CALM 0 0 0 0 1021.2 1020.5 0.0
15/06:00am 14.3 12.8 8.3 67 3.0 NW 6 7 3 4 1020.9 1020.2 0.0
15/05:30am 13.6 12.8 8.0 69 2.8 NE 2 7 1 4 1020.6 1019.9 0.0
15/05:00am 14.0 13.4 7.3 64 3.3 CALM 0 0 0 0 1020.4 1019.7 0.0
15/04:30am 14.7 14.2 7.7 63 3.5 CALM 0 0 0 0 1020.3 1019.6 0.0
15/04:00am 14.4 13.1 7.7 64 3.3 S 4 7 2 4 1020.1 1019.4 0.0
15/03:30am 14.8 14.2 7.6 62 3.6 CALM 0 0 0 0 1020.0 1019.3 0.0
15/03:00am 15.7 15.1 7.5 58 4.1 CALM 0 0 0 0 1019.9 1019.2 0.0
15/02:30am 15.6 15.0 7.6 59 4.0 CALM 0 0 0 0 1019.8 1019.1 0.0
15/02:00am 15.9 15.0 7.9 59 4.0 ESE 2 7 1 4 1020.0 1019.3 0.0
15/01:30am 15.8 13.7 6.8 55 4.5 S 7 7 4 4 1020.1 1019.4 0.0
15/01:00am 16.1 15.2 6.0 51 4.9 CALM 0 0 0 0 1020.1 1019.4 0.0
15/12:30am 16.3 15.4 6.2 51 5.0 CALM 0 0 0 0 1019.9 1019.2 0.0
15/12:00am 16.3 15.6 7.0 54 4.6 CALM 0 0 0 0 1019.9 1019.2 0.0
 
Date/Time
EDT
Temp
°C
App
Temp
°C
Dew
Point
°C
Rel
Hum
%
Delta-T
°C
Wind Press
QNH
hPa
Press
MSL
hPa
Rain since
9am
mm
Dir  Spd
km/h
Gust
km/h
Spd
kts
Gust
kts
14/11:30pm 17.5 16.1 7.3 51 5.2 S 4 7 2 4 1020.0 1019.3 0.0
14/11:00pm 18.2 14.9 4.4 40 6.6 ENE 11 13 6 7 1019.8 1019.1 0.0
14/10:30pm 20.0 17.6 4.1 35 7.7 NE 6 7 3 4 1019.8 1019.1 0.0
14/10:00pm 20.3 17.2 3.5 33 8.0 WNW 9 11 5 6 1019.6 1018.9 0.0
14/09:30pm 20.7 17.1 3.0 31 8.4 W 11 13 6 7 1019.2 1018.5 0.0
14/09:00pm 21.4 17.7 2.6 29 8.9 W 11 13 6 7 1018.9 1018.1 0.0
14/08:30pm 22.3 18.2 2.4 27 9.5 W 13 19 7 10 1018.6 1017.8 0.0
14/08:00pm 23.9 19.4 2.1 24 10.4 W 15 19 8 10 1018.2 1017.4 0.0
14/07:30pm 25.7 20.8 1.8 21 11.5 W 17 22 9 12 1017.9 1017.1 0.0
14/07:00pm 26.7 21.9 2.6 21 11.8 W 17 22 9 12 1017.6 1016.8 0.0
14/06:30pm 27.3 22.6 3.1 21 12.1 WNW 17 24 9 13 1017.4 1016.6 0.0
14/06:00pm 27.5 23.2 3.2 21 12.1 WNW 15 22 8 12 1017.3 1016.5 0.0
14/05:30pm 27.1 22.4 2.9 21 12.0 W 17 28 9 15 1017.4 1016.6 0.0
14/05:00pm 27.3 23.0 3.1 21 12.0 W 15 22 8 12 1017.5 1016.7 0.0
14/04:30pm 26.5 23.2 2.4 21 11.8 NW 9 20 5 11 1017.7 1016.9 0.0
14/04:00pm 26.6 21.7 1.8 20 12.0 WNW 17 26 9 14 1017.9 1017.1 0.0
14/03:30pm 25.7 21.5 1.8 21 11.5 WNW 13 26 7 14 1018.2 1017.4 0.0
14/03:00pm 25.6 20.9 1.0 20 11.6 WSW 15 26 8 14 1018.5 1017.7 0.0

Other Formats:

Comma delimited format used in spreadsheet applications
http://www.bom.gov.au/fwo/IDV60801/IDV60801.95896.axf

JavaScript Object Notation format (JSON) in row-major order
http://www.bom.gov.au/fwo/IDV60801/IDV60801.95896.json